Time;durP1;ratioP1;P1;durP2;ratioP2;P2;SDS_P1;SDS_P2;PMS_P1;PMS_P2;Temp;Humidity;BMP_temperature;BMP_pressure;BME280_temperature;BME280_humidity;BME280_pressure;Samples;Min_cycle;Max_cycle;Signal;HPM_P1;HPM_P2
2022/10/19 00:02:02;;;;;;;29.13;10.05;;;9.30;99.90;;;;;;5043926;28;20013;-55
2022/10/19 00:04:28;;;;;;;26.63;9.18;;;9.40;99.90;;;;;;5040902;28;20025;-58
2022/10/19 00:06:54;;;;;;;26.15;10.63;;;9.40;99.90;;;;;;5041885;28;20103;-60
2022/10/19 00:09:19;;;;;;;39.38;10.35;;;9.40;99.90;;;;;;5047281;28;20443;-58
2022/10/19 00:11:48;;;;;;;21.05;9.82;;;9.50;99.90;;;;;;5043346;28;20108;-59
2022/10/19 00:14:17;;;;;;;22.50;8.98;;;9.40;99.90;;;;;;5048087;28;20079;-56
2022/10/19 00:16:43;;;;;;;20.77;8.63;;;9.30;99.90;;;;;;5044673;28;20025;-59
2022/10/19 00:19:13;;;;;;;26.35;8.93;;;9.40;99.90;;;;;;5050369;28;20064;-58
2022/10/19 00:21:39;;;;;;;21.98;8.63;;;9.40;99.90;;;;;;5047560;28;20022;-60
2022/10/19 00:24:06;;;;;;;23.27;9.60;;;9.40;99.90;;;;;;5050478;28;20423;-61
2022/10/19 00:26:31;;;;;;;22.10;10.10;;;9.40;99.90;;;;;;5046812;28;20052;-57
2022/10/19 00:28:57;;;;;;;31.05;10.00;;;9.20;99.90;;;;;;5048344;28;20067;-60
2022/10/19 00:31:23;;;;;;;22.13;9.27;;;9.10;99.90;;;;;;5043868;28;20033;-59
2022/10/19 00:33:49;;;;;;;17.58;9.15;;;9.00;99.90;;;;;;5047792;28;20093;-59
2022/10/19 00:36:16;;;;;;;28.33;10.65;;;8.90;99.90;;;;;;5048210;28;21103;-54
2022/10/19 00:38:41;;;;;;;27.92;10.68;;;8.90;99.90;;;;;;5049620;28;20441;-59
2022/10/19 00:41:07;;;;;;;26.05;11.05;;;9.00;99.90;;;;;;5043408;28;20037;-53
2022/10/19 00:43:52;;;;;;;27.58;10.80;;;9.00;99.90;;;;;;5050450;28;20125;-57
2022/10/19 00:46:18;;;;;;;21.70;10.20;;;8.90;99.90;;;;;;5044663;28;20102;-55
2022/10/19 00:48:44;;;;;;;30.73;10.65;;;8.90;99.90;;;;;;5049244;28;20498;-58
2022/10/19 00:51:09;;;;;;;35.53;10.88;;;8.70;99.90;;;;;;5046874;28;20392;-60
2022/10/19 00:53:35;;;;;;;27.02;9.38;;;8.70;99.90;;;;;;5047234;28;20299;-59
2022/10/19 00:56:08;;;;;;;23.85;9.82;;;8.80;99.90;;;;;;5047301;28;20041;-61
2022/10/19 00:58:34;;;;;;;28.05;9.52;;;8.70;99.90;;;;;;5045094;28;20371;-57
2022/10/19 01:01:03;;;;;;;30.25;9.15;;;8.70;99.90;;;;;;5044209;28;20074;-59
2022/10/19 01:03:29;;;;;;;18.42;9.45;;;8.80;99.90;;;;;;5048450;28;20025;-59
2022/10/19 01:05:55;;;;;;;20.08;9.50;;;8.70;99.90;;;;;;5047241;28;20041;-57
2022/10/19 01:08:21;;;;;;;31.73;10.13;;;8.80;99.90;;;;;;5047061;28;20554;-57
2022/10/19 01:11:13;;;;;;;22.85;9.82;;;8.80;99.90;;;;;;5048426;28;20112;-56
2022/10/19 01:13:57;;;;;;;30.63;10.23;;;8.60;99.90;;;;;;5018717;28;20052;-58
2022/10/19 01:16:41;;;;;;;34.50;9.68;;;8.60;99.90;;;;;;5046982;28;20071;-55
2022/10/19 01:19:33;;;;;;;32.53;11.07;;;8.60;99.90;;;;;;5048340;28;20687;-59
2022/10/19 01:22:02;;;;;;;24.23;9.88;;;8.60;99.90;;;;;;5047418;28;20368;-57
2022/10/19 01:24:49;;;;;;;25.95;9.18;;;8.50;99.90;;;;;;5046294;28;20855;-55
2022/10/19 01:27:35;;;;;;;22.58;9.98;;;8.60;99.90;;;;;;5045125;28;20033;-56
2022/10/19 01:30:03;;;;;;;23.13;9.13;;;8.60;99.90;;;;;;5049254;28;20032;-56
2022/10/19 01:32:31;;;;;;;19.00;8.85;;;8.60;99.90;;;;;;5045854;28;20056;-57
2022/10/19 01:35:12;;;;;;;24.45;9.18;;;8.70;99.90;;;;;;5047430;28;20013;-61
2022/10/19 01:37:47;;;;;;;22.95;8.45;;;8.70;99.90;;;;;;5043824;28;20057;-58
2022/10/19 01:40:33;;;;;;;19.38;8.10;;;8.70;99.90;;;;;;5043699;28;20037;-52
2022/10/19 01:43:06;;;;;;;13.90;7.57;;;8.70;99.90;;;;;;5043381;28;20084;-58
2022/10/19 01:45:48;;;;;;;24.83;8.75;;;8.60;99.90;;;;;;5035858;28;20074;-55
2022/10/19 01:48:25;;;;;;;18.17;8.07;;;8.60;99.90;;;;;;5045168;28;20123;-57
2022/10/19 01:50:59;;;;;;;26.30;9.93;;;8.70;99.90;;;;;;5045569;28;20017;-57
2022/10/19 01:53:28;;;;;;;19.80;8.80;;;8.50;99.90;;;;;;5050958;28;20032;-57
2022/10/19 01:55:55;;;;;;;20.73;9.15;;;8.50;99.90;;;;;;5045313;28;20183;-58
2022/10/19 01:58:26;;;;;;;22.00;8.02;;;8.40;99.90;;;;;;5043287;28;21310;-58
2022/10/19 02:00:54;;;;;;;17.33;8.70;;;8.40;99.90;;;;;;5045938;28;20104;-58
2022/10/19 02:03:21;;;;;;;20.50;8.77;;;8.20;99.90;;;;;;5047727;28;20056;-56
2022/10/19 02:05:48;;;;;;;27.60;9.48;;;8.20;99.90;;;;;;5046867;28;20013;-56
2022/10/19 02:08:23;;;;;;;20.63;9.13;;;8.20;99.90;;;;;;5041976;28;20043;-59
2022/10/19 02:10:49;;;;;;;26.27;10.70;;;8.10;99.90;;;;;;5045158;28;20061;-57
2022/10/19 02:13:17;;;;;;;23.88;9.55;;;8.00;99.90;;;;;;5046028;28;20491;-55
2022/10/19 02:15:46;;;;;;;22.75;9.05;;;8.10;99.90;;;;;;5043995;28;20017;-58
2022/10/19 02:18:15;;;;;;;20.55;8.98;;;7.90;99.90;;;;;;5045842;28;20021;-57
2022/10/19 02:20:41;;;;;;;18.80;8.88;;;7.90;99.90;;;;;;5046603;28;20033;-54
2022/10/19 02:23:07;;;;;;;26.38;8.70;;;7.90;99.90;;;;;;5048560;28;20092;-56
2022/10/19 02:25:33;;;;;;;23.48;10.50;;;7.90;99.90;;;;;;5046468;28;20098;-58
2022/10/19 02:28:01;;;;;;;19.55;8.70;;;8.00;99.90;;;;;;5046863;28;20027;-58
2022/10/19 02:30:27;;;;;;;21.02;9.73;;;8.00;99.90;;;;;;5043306;28;20091;-55
2022/10/19 02:32:52;;;;;;;23.58;9.30;;;7.90;99.90;;;;;;5046180;28;20033;-57
2022/10/19 02:35:18;;;;;;;20.45;9.23;;;7.90;99.90;;;;;;5042812;28;20108;-57
2022/10/19 02:37:44;;;;;;;18.05;8.23;;;7.90;99.90;;;;;;5048669;28;20021;-59
2022/10/19 02:40:10;;;;;;;24.60;8.70;;;8.00;99.90;;;;;;5045438;28;20025;-61
2022/10/19 02:42:48;;;;;;;25.42;7.18;;;8.10;99.90;;;;;;5046109;28;20124;-52
2022/10/19 02:45:24;;;;;;;23.60;9.18;;;8.20;99.90;;;;;;5041829;28;20052;-58
2022/10/19 02:48:00;;;;;;;18.42;8.77;;;8.20;99.90;;;;;;5038597;28;20540;-57
2022/10/19 02:50:26;;;;;;;24.10;9.25;;;8.30;99.90;;;;;;5048151;28;20628;-58
2022/10/19 02:52:52;;;;;;;37.15;10.18;;;8.40;99.90;;;;;;5035756;28;20017;-58
2022/10/19 02:55:18;;;;;;;51.00;11.30;;;8.40;99.90;;;;;;5045724;28;20023;-57
2022/10/19 02:57:44;;;;;;;27.30;10.27;;;8.40;99.90;;;;;;5046445;28;20450;-56
2022/10/19 03:00:10;;;;;;;31.40;10.90;;;8.40;99.90;;;;;;5043511;28;20029;-62
2022/10/19 03:02:35;;;;;;;38.05;11.63;;;8.50;99.90;;;;;;5039575;28;20502;-62
2022/10/19 03:05:01;;;;;;;30.42;9.85;;;8.40;99.90;;;;;;5044167;28;20078;-57
2022/10/19 03:07:27;;;;;;;37.40;11.00;;;8.20;99.90;;;;;;5045967;28;20482;-61
2022/10/19 03:09:53;;;;;;;23.50;10.65;;;8.20;99.90;;;;;;5047311;28;20091;-63
2022/10/19 03:12:18;;;;;;;28.98;10.85;;;8.10;99.90;;;;;;5045955;28;20021;-62
2022/10/19 03:14:44;;;;;;;21.73;9.98;;;7.90;99.90;;;;;;5046454;28;20071;-59
2022/10/19 03:17:09;;;;;;;35.47;9.98;;;7.90;99.90;;;;;;5039090;28;20165;-57
2022/10/19 03:19:35;;;;;;;22.85;9.13;;;7.90;99.90;;;;;;5049981;28;20025;-58
2022/10/19 03:22:01;;;;;;;21.17;9.30;;;7.80;99.90;;;;;;5041994;28;20071;-57
2022/10/19 03:24:28;;;;;;;19.42;9.60;;;7.80;99.90;;;;;;5043345;28;20068;-57
2022/10/19 03:26:53;;;;;;;19.02;8.82;;;7.90;99.90;;;;;;5038179;28;20148;-56
2022/10/19 03:29:19;;;;;;;17.92;8.90;;;7.90;99.90;;;;;;5039605;28;20132;-56
2022/10/19 03:31:44;;;;;;;22.70;8.48;;;8.00;99.90;;;;;;5035817;28;20136;-58
2022/10/19 03:34:10;;;;;;;20.38;9.00;;;8.00;99.90;;;;;;5038120;28;22787;-58
2022/10/19 03:36:37;;;;;;;17.40;8.75;;;8.00;99.90;;;;;;5041205;28;20384;-57
2022/10/19 03:39:06;;;;;;;17.23;9.85;;;7.90;99.90;;;;;;5036981;28;20029;-57
2022/10/19 03:41:34;;;;;;;18.67;9.55;;;7.90;99.90;;;;;;5035143;28;20023;-61
2022/10/19 03:43:59;;;;;;;22.45;9.93;;;7.90;99.90;;;;;;5039110;28;20033;-57
2022/10/19 03:46:25;;;;;;;28.67;10.27;;;7.90;99.90;;;;;;5041609;28;20037;-60
2022/10/19 03:48:52;;;;;;;24.17;10.25;;;8.00;99.90;;;;;;5041716;28;20513;-61
2022/10/19 03:51:20;;;;;;;24.85;9.73;;;7.80;99.90;;;;;;5045933;28;20040;-63
2022/10/19 03:53:46;;;;;;;23.60;8.68;;;7.80;99.90;;;;;;5041249;28;20040;-61
2022/10/19 03:56:17;;;;;;;20.48;9.20;;;7.90;99.90;;;;;;5042215;28;20453;-63
2022/10/19 03:58:44;;;;;;;22.90;9.85;;;8.00;99.90;;;;;;5043396;28;20045;-61
2022/10/19 04:01:22;;;;;;;22.70;9.38;;;7.90;99.90;;;;;;5041234;28;20032;-60
2022/10/19 04:03:58;;;;;;;30.20;10.27;;;7.90;99.90;;;;;;5043835;28;20033;-60
2022/10/19 04:06:29;;;;;;;28.20;11.13;;;8.00;99.90;;;;;;5043129;28;20036;-55
2022/10/19 04:08:55;;;;;;;28.40;9.38;;;7.90;99.90;;;;;;5042156;28;20060;-53
2022/10/19 04:11:23;;;;;;;20.08;10.18;;;8.00;99.90;;;;;;5039667;28;20144;-60
2022/10/19 04:13:53;;;;;;;23.13;10.75;;;8.00;99.90;;;;;;5042242;28;20059;-59
2022/10/19 04:16:21;;;;;;;25.83;10.57;;;7.90;99.90;;;;;;5045191;28;20032;-56
2022/10/19 04:18:47;;;;;;;19.63;10.20;;;7.90;99.90;;;;;;5040695;28;20059;-56
2022/10/19 04:21:25;;;;;;;30.15;10.48;;;7.70;99.90;;;;;;5037949;28;20095;-58
2022/10/19 04:23:53;;;;;;;19.30;9.50;;;7.60;99.90;;;;;;5042172;28;20849;-54
2022/10/19 04:26:19;;;;;;;17.33;8.63;;;7.50;99.90;;;;;;5040021;28;20094;-55
2022/10/19 04:28:45;;;;;;;17.90;7.97;;;7.40;99.90;;;;;;5042833;28;20029;-62
2022/10/19 04:31:11;;;;;;;16.58;9.23;;;7.40;99.90;;;;;;5044711;28;20056;-54
2022/10/19 04:33:37;;;;;;;19.45;8.35;;;7.50;99.90;;;;;;5040383;28;20078;-58
2022/10/19 04:36:06;;;;;;;17.80;8.95;;;7.50;99.90;;;;;;5038877;28;20431;-59
2022/10/19 04:38:32;;;;;;;19.40;8.93;;;7.60;99.90;;;;;;5044056;28;20108;-59
2022/10/19 04:41:06;;;;;;;15.15;8.30;;;7.60;99.90;;;;;;5039864;28;20163;-60
2022/10/19 04:43:32;;;;;;;15.45;8.52;;;7.60;99.90;;;;;;5041219;28;20029;-56
2022/10/19 04:46:02;;;;;;;15.38;8.60;;;7.60;99.90;;;;;;5044505;28;20044;-58
2022/10/19 04:48:28;;;;;;;15.50;8.02;;;7.40;99.90;;;;;;5047031;28;20025;-52
2022/10/19 04:50:54;;;;;;;15.88;8.65;;;7.30;99.90;;;;;;5043253;28;20082;-57
2022/10/19 04:53:20;;;;;;;14.38;8.30;;;7.20;99.90;;;;;;5043134;28;20021;-60
2022/10/19 04:55:46;;;;;;;14.07;8.60;;;7.10;99.90;;;;;;5047270;28;20017;-57
2022/10/19 04:58:11;;;;;;;15.93;7.90;;;7.10;99.90;;;;;;5051045;28;20538;-53
2022/10/19 05:00:38;;;;;;;16.77;9.13;;;7.00;99.90;;;;;;5044135;28;20024;-54
2022/10/19 05:03:03;;;;;;;17.38;8.98;;;7.00;99.90;;;;;;5037404;28;20079;-55
2022/10/19 05:05:30;;;;;;;14.30;8.73;;;7.00;99.90;;;;;;5033589;28;20064;-58
2022/10/19 05:07:56;;;;;;;13.65;7.72;;;7.00;99.90;;;;;;5047623;28;20036;-55
2022/10/19 05:10:21;;;;;;;12.70;8.20;;;7.00;99.90;;;;;;5048277;28;20379;-55
2022/10/19 05:12:47;;;;;;;19.73;8.55;;;7.00;99.90;;;;;;5044437;28;21022;-60
2022/10/19 05:15:12;;;;;;;21.90;8.90;;;7.10;99.90;;;;;;5044633;22;20061;-58
2022/10/19 05:17:38;;;;;;;18.40;9.35;;;7.20;99.90;;;;;;5026532;28;20502;-58
2022/10/19 05:20:04;;;;;;;18.10;8.98;;;7.20;99.90;;;;;;5027019;28;20151;-61
2022/10/19 05:22:29;;;;;;;16.60;9.60;;;7.10;99.90;;;;;;5025430;28;20037;-63
2022/10/19 05:24:55;;;;;;;19.15;9.15;;;7.10;99.90;;;;;;5024818;28;20068;-59
2022/10/19 05:27:21;;;;;;;20.55;9.13;;;7.10;99.90;;;;;;5018048;28;20053;-63
2022/10/19 05:29:46;;;;;;;16.13;8.73;;;7.10;99.90;;;;;;5022405;28;20070;-62
2022/10/19 05:32:12;;;;;;;22.95;9.45;;;7.10;99.90;;;;;;5024384;28;20025;-58
2022/10/19 05:34:38;;;;;;;21.73;9.00;;;7.20;99.90;;;;;;5027252;28;20042;-59
2022/10/19 05:37:03;;;;;;;21.75;9.15;;;7.10;99.90;;;;;;5027642;28;20029;-59
2022/10/19 05:39:29;;;;;;;16.00;8.73;;;7.10;99.90;;;;;;5024419;28;20048;-62
2022/10/19 05:41:54;;;;;;;18.85;9.93;;;7.20;99.90;;;;;;5027557;28;20088;-64
2022/10/19 05:44:22;;;;;;;14.65;8.27;;;7.30;99.90;;;;;;5030894;28;20025;-59
2022/10/19 05:46:48;;;;;;;14.20;8.65;;;7.40;99.90;;;;;;5029088;28;20029;-62
2022/10/19 05:49:16;;;;;;;17.63;7.72;;;7.50;99.90;;;;;;5026049;28;20502;-60
2022/10/19 05:51:42;;;;;;;14.07;7.88;;;7.60;99.90;;;;;;5021396;28;20423;-59
2022/10/19 05:54:08;;;;;;;16.23;8.07;;;7.70;99.90;;;;;;5028798;28;20038;-59
2022/10/19 05:56:34;;;;;;;13.40;8.50;;;7.70;99.90;;;;;;5022941;28;20017;-62
2022/10/19 05:59:03;;;;;;;24.02;9.57;;;7.80;99.90;;;;;;5030465;28;20507;-59
2022/10/19 06:01:29;;;;;;;35.72;8.73;;;7.80;99.90;;;;;;5027767;28;20116;-59
2022/10/19 06:03:58;;;;;;;28.35;9.20;;;7.80;99.90;;;;;;5017988;28;20026;-60
2022/10/19 06:06:25;;;;;;;32.50;9.05;;;7.90;99.90;;;;;;5022421;28;20119;-59
2022/10/19 06:08:52;;;;;;;16.33;8.02;;;7.80;99.90;;;;;;5035163;28;20029;-62
2022/10/19 06:11:20;;;;;;;49.97;11.18;;;7.90;99.90;;;;;;5025602;28;20044;-57
2022/10/19 06:13:48;;;;;;;66.25;10.70;;;8.00;99.90;;;;;;5027320;28;20033;-60
2022/10/19 06:16:18;;;;;;;75.03;11.07;;;8.00;99.90;;;;;;5029605;28;20033;-59
2022/10/19 06:18:44;;;;;;;55.20;13.05;;;8.00;99.90;;;;;;5033424;28;20032;-62
2022/10/19 06:21:15;;;;;;;46.67;11.90;;;8.00;99.90;;;;;;5023037;28;20423;-62
2022/10/19 06:23:41;;;;;;;43.78;11.18;;;7.90;99.90;;;;;;5022894;28;20038;-60
2022/10/19 06:26:10;;;;;;;36.63;13.27;;;7.90;99.90;;;;;;5014259;28;20095;-59
2022/10/19 06:28:37;;;;;;;48.78;11.30;;;7.90;99.90;;;;;;5031150;28;20025;-59
2022/10/19 06:31:02;;;;;;;49.08;12.40;;;8.00;99.90;;;;;;5017578;28;20108;-62
2022/10/19 06:33:31;;;;;;;35.60;12.70;;;7.90;99.90;;;;;;5025809;28;20107;-61
2022/10/19 06:36:14;;;;;;;46.90;11.77;;;7.90;99.90;;;;;;5018671;28;20391;-63
2022/10/19 06:38:40;;;;;;;37.83;11.25;;;8.00;99.90;;;;;;5022964;28;20029;-63
2022/10/19 06:41:06;;;;;;;26.00;11.48;;;8.00;99.90;;;;;;5025816;28;20071;-63
2022/10/19 06:43:32;;;;;;;38.10;12.70;;;8.10;99.90;;;;;;5022797;28;20029;-59
2022/10/19 06:46:04;;;;;;;35.47;13.70;;;8.20;99.90;;;;;;5018149;28;20021;-65
2022/10/19 06:48:29;;;;;;;42.85;12.48;;;8.20;99.90;;;;;;5016966;28;20076;-61
2022/10/19 06:51:00;;;;;;;32.58;12.35;;;8.20;99.90;;;;;;5016804;28;20571;-60
2022/10/19 06:53:26;;;;;;;30.42;13.95;;;8.30;99.90;;;;;;5021336;28;20656;-62
2022/10/19 06:55:51;;;;;;;29.58;12.55;;;8.50;99.90;;;;;;5017109;28;20152;-60
2022/10/19 06:58:17;;;;;;;32.00;12.85;;;8.60;99.90;;;;;;5017256;28;20643;-60
2022/10/19 07:00:42;;;;;;;39.53;13.82;;;8.70;99.90;;;;;;5024907;28;20029;-60
2022/10/19 07:03:08;;;;;;;32.20;13.77;;;8.70;99.90;;;;;;5022579;28;20029;-62
2022/10/19 07:05:33;;;;;;;35.15;15.15;;;8.70;99.90;;;;;;5029459;28;20022;-56
2022/10/19 07:07:59;;;;;;;41.20;15.68;;;8.60;99.90;;;;;;5017994;28;20502;-59
2022/10/19 07:10:24;;;;;;;39.08;15.95;;;8.70;99.90;;;;;;5023382;28;20100;-61
2022/10/19 07:12:50;;;;;;;53.10;19.67;;;8.80;99.90;;;;;;5021785;28;20036;-59
2022/10/19 07:15:16;;;;;;;42.03;18.48;;;8.80;99.90;;;;;;5022117;28;102512;-65
2022/10/19 07:17:41;;;;;;;45.92;18.92;;;8.90;99.90;;;;;;5020146;28;20034;-59
2022/10/19 07:20:09;;;;;;;44.72;20.25;;;8.90;99.90;;;;;;5034361;28;20104;-59
2022/10/19 07:22:35;;;;;;;40.92;16.27;;;8.90;99.90;;;;;;5026177;28;20192;-57
2022/10/19 07:25:00;;;;;;;44.38;19.60;;;9.00;99.90;;;;;;5039318;28;20116;-58
2022/10/19 07:27:26;;;;;;;50.30;19.27;;;9.00;99.90;;;;;;5030280;28;20042;-61
2022/10/19 07:29:52;;;;;;;44.58;19.10;;;9.00;99.90;;;;;;5029512;28;20084;-64
2022/10/19 07:32:17;;;;;;;50.08;18.98;;;9.00;99.90;;;;;;5028020;28;20662;-59
2022/10/19 07:34:43;;;;;;;46.65;19.20;;;9.10;99.90;;;;;;5036879;28;20043;-60
2022/10/19 07:37:08;;;;;;;38.95;17.45;;;9.30;99.90;;;;;;5024450;28;20029;-54
2022/10/19 07:39:34;;;;;;;47.33;17.98;;;9.30;99.90;;;;;;5036009;28;20029;-55
2022/10/19 07:41:59;;;;;;;45.65;18.13;;;9.30;99.90;;;;;;5025854;28;20124;-53
2022/10/19 07:44:25;;;;;;;43.97;17.45;;;9.20;99.90;;;;;;5040447;28;20116;-59
2022/10/19 07:46:50;;;;;;;57.17;18.15;;;9.20;99.90;;;;;;5031813;28;20022;-53
2022/10/19 07:49:17;;;;;;;46.78;16.80;;;9.30;99.90;;;;;;5033136;28;20103;-54
2022/10/19 07:51:44;;;;;;;35.83;16.17;;;9.40;99.90;;;;;;5030094;28;20021;-57
2022/10/19 07:54:09;;;;;;;52.03;16.83;;;9.50;99.90;;;;;;5039986;28;20076;-55
2022/10/19 07:56:35;;;;;;;41.75;15.27;;;9.50;99.90;;;;;;5020182;28;20034;-55
2022/10/19 07:59:01;;;;;;;33.83;13.88;;;9.50;99.90;;;;;;5028440;28;20030;-58
2022/10/19 08:01:32;;;;;;;33.67;14.95;;;9.60;99.90;;;;;;5024344;28;20101;-58
2022/10/19 08:03:59;;;;;;;36.40;14.32;;;9.60;99.90;;;;;;5029788;28;20099;-59
2022/10/19 08:06:26;;;;;;;33.88;14.48;;;9.50;99.90;;;;;;5029156;28;20024;-56
2022/10/19 08:08:52;;;;;;;37.85;14.05;;;9.60;99.90;;;;;;5040927;28;20065;-57
2022/10/19 08:11:27;;;;;;;27.73;12.73;;;9.50;99.90;;;;;;5019536;28;20037;-52
2022/10/19 08:13:52;;;;;;;31.38;13.88;;;9.50;99.90;;;;;;5029832;28;20496;-54
2022/10/19 08:16:27;;;;;;;30.92;13.05;;;9.60;99.90;;;;;;5019741;28;20047;-55
2022/10/19 08:18:56;;;;;;;37.33;14.45;;;9.60;99.90;;;;;;5029302;28;20044;-56
2022/10/19 08:21:22;;;;;;;29.35;12.48;;;9.60;99.90;;;;;;5025850;28;20040;-57
2022/10/19 08:23:47;;;;;;;30.23;12.57;;;9.60;99.90;;;;;;5025085;28;20033;-58
2022/10/19 08:26:13;;;;;;;33.70;12.45;;;9.70;99.90;;;;;;5032331;28;20430;-55
2022/10/19 08:28:38;;;;;;;27.10;10.55;;;9.70;99.90;;;;;;5029319;28;20039;-56
2022/10/19 08:31:16;;;;;;;24.33;10.45;;;9.80;99.90;;;;;;5025393;28;20022;-57
2022/10/19 08:33:43;;;;;;;26.15;10.40;;;9.80;99.90;;;;;;5021249;28;20080;-55
2022/10/19 08:36:10;;;;;;;43.97;11.38;;;9.90;99.90;;;;;;5025313;28;20029;-57
2022/10/19 08:38:38;;;;;;;18.88;10.27;;;10.00;99.90;;;;;;5025967;28;20121;-56
2022/10/19 08:41:28;;;;;;;22.23;9.43;;;10.00;99.90;;;;;;5025128;28;20018;-56
2022/10/19 08:44:01;;;;;;;21.65;9.15;;;10.00;99.90;;;;;;5020959;28;20022;-54
2022/10/19 08:46:44;;;;;;;19.23;9.18;;;10.00;99.90;;;;;;5020483;28;20021;-56
2022/10/19 08:49:15;;;;;;;24.60;9.45;;;10.00;99.90;;;;;;5021042;28;20029;-55
2022/10/19 08:51:44;;;;;;;19.75;8.98;;;10.00;99.90;;;;;;5026118;28;20113;-57
2022/10/19 08:54:15;;;;;;;25.02;9.38;;;10.00;99.90;;;;;;5035559;28;20030;-57
2022/10/19 08:56:49;;;;;;;17.67;9.07;;;10.20;99.90;;;;;;5026935;28;20025;-54
2022/10/19 08:59:23;;;;;;;21.97;8.57;;;10.20;99.90;;;;;;5023901;28;20033;-55
2022/10/19 09:01:49;;;;;;;21.45;8.63;;;10.30;99.90;;;;;;5026508;28;20025;-56
2022/10/19 09:04:23;;;;;;;22.40;8.98;;;10.40;99.90;;;;;;5027855;28;20033;-54
2022/10/19 09:07:02;;;;;;;21.10;10.05;;;10.50;99.90;;;;;;5020586;28;20039;-55
2022/10/19 09:09:30;;;;;;;22.75;9.40;;;10.50;99.90;;;;;;5015432;28;20026;-52
2022/10/19 09:12:04;;;;;;;17.30;9.15;;;10.60;99.90;;;;;;5024078;28;20025;-56
2022/10/19 09:14:57;;;;;;;24.73;9.40;;;10.70;99.90;;;;;;5014239;28;20026;-54
2022/10/19 09:17:24;;;;;;;18.02;7.65;;;10.90;99.90;;;;;;5018940;28;20159;-58
2022/10/19 09:19:50;;;;;;;15.27;7.35;;;10.80;99.90;;;;;;5018882;28;20040;-59
2022/10/19 09:22:48;;;;;;;16.02;7.75;;;11.00;99.90;;;;;;5022486;28;20082;-52
2022/10/19 09:25:18;;;;;;;17.02;7.47;;;11.10;99.90;;;;;;5010543;28;20171;-54
2022/10/19 09:27:48;;;;;;;19.85;6.43;;;11.30;99.90;;;;;;5027600;28;20029;-56
2022/10/19 09:30:20;;;;;;;20.13;6.88;;;11.30;99.90;;;;;;5023245;28;20049;-52
2022/10/19 09:32:48;;;;;;;20.27;6.82;;;11.40;99.90;;;;;;5024591;28;20073;-56
2022/10/19 09:35:27;;;;;;;19.17;6.55;;;11.70;99.90;;;;;;5017764;28;20038;-59
2022/10/19 09:37:53;;;;;;;14.10;5.82;;;11.80;99.90;;;;;;5022284;28;20022;-58
2022/10/19 09:40:28;;;;;;;13.73;5.45;;;11.90;99.90;;;;;;5012021;28;20041;-57
2022/10/19 09:42:58;;;;;;;15.73;6.10;;;12.10;99.90;;;;;;5015452;28;20109;-54
2022/10/19 09:45:43;;;;;;;16.30;6.57;;;12.10;99.90;;;;;;5014851;28;20040;-57
2022/10/19 09:48:40;;;;;;;16.70;6.10;;;12.30;99.90;;;;;;5016015;28;20060;-55
2022/10/19 09:51:14;;;;;;;16.27;5.70;;;12.20;99.90;;;;;;5017084;28;20044;-55
2022/10/19 09:53:44;;;;;;;;;;;12.30;99.90;;;;;;5009969;28;20056;-53
2022/10/19 09:56:18;;;;;;;12.70;5.80;;;12.50;99.90;;;;;;5014235;28;19944;-55
2022/10/19 09:58:49;;;;;;;13.48;5.88;;;12.50;99.90;;;;;;5027525;28;20107;-58
2022/10/19 10:01:34;;;;;;;15.85;5.78;;;12.50;99.90;;;;;;5021290;28;20033;-57
2022/10/19 10:04:17;;;;;;;22.67;6.00;;;12.60;99.90;;;;;;5019368;28;20033;-56
2022/10/19 10:06:46;;;;;;;18.67;6.90;;;12.70;99.90;;;;;;5020885;28;20037;-57
2022/10/19 10:09:16;;;;;;;15.63;6.13;;;12.80;99.90;;;;;;5005000;28;20032;-56
2022/10/19 10:11:46;;;;;;;19.50;6.43;;;12.90;99.90;;;;;;5017070;28;20116;-56
2022/10/19 10:14:26;;;;;;;22.55;6.55;;;12.90;99.90;;;;;;4999886;28;20039;-58
2022/10/19 10:17:17;;;;;;;25.27;6.05;;;13.00;99.90;;;;;;5013065;28;20060;-57
2022/10/19 10:20:04;;;;;;;15.50;5.20;;;13.10;99.90;;;;;;5012154;28;20041;-53
2022/10/19 10:22:35;;;;;;;21.20;6.53;;;13.10;99.90;;;;;;5018565;28;20499;-54
2022/10/19 10:25:15;;;;;;;12.68;5.85;;;13.20;99.90;;;;;;5014851;28;20029;-55
2022/10/19 10:27:41;;;;;;;18.05;6.03;;;13.30;99.90;;;;;;5017219;28;20042;-52
2022/10/19 10:30:09;;;;;;;16.75;5.00;;;13.20;99.90;;;;;;5022507;28;20029;-56
2022/10/19 10:32:46;;;;;;;22.73;7.15;;;13.30;99.90;;;;;;5013212;28;20065;-53
2022/10/19 10:35:28;;;;;;;15.45;5.65;;;13.40;99.90;;;;;;5017914;28;20132;-57
2022/10/19 10:38:15;;;;;;;20.17;5.72;;;13.40;99.90;;;;;;5014340;28;20084;-54
2022/10/19 10:40:50;;;;;;;13.55;6.85;;;13.50;99.90;;;;;;5014498;28;20164;-55
2022/10/19 10:43:16;;;;;;;;;;;13.70;99.90;;;;;;5021016;28;20029;-54
2022/10/19 10:45:45;;;;;;;16.27;5.10;;;13.70;99.90;;;;;;5020126;28;19955;-56
2022/10/19 10:48:23;;;;;;;20.10;5.95;;;13.90;99.90;;;;;;5021053;28;20052;-57
2022/10/19 10:50:50;;;;;;;22.17;5.30;;;13.90;99.90;;;;;;5009462;28;20032;-58
2022/10/19 10:53:31;;;;;;;14.00;5.70;;;14.10;99.90;;;;;;5014030;28;20160;-57
2022/10/19 10:55:57;;;;;;;14.07;5.80;;;14.10;99.90;;;;;;5014760;28;20467;-58
2022/10/19 10:58:37;;;;;;;16.05;5.53;;;14.20;99.90;;;;;;5008494;28;20140;-58
2022/10/19 11:01:12;;;;;;;10.98;5.20;;;14.40;99.90;;;;;;5014929;28;20569;-53
2022/10/19 11:03:41;;;;;;;;;;;14.70;99.90;;;;;;5014528;28;20096;-54
2022/10/19 11:06:07;;;;;;;16.90;5.18;;;14.90;99.90;;;;;;5027986;28;19914;-57
2022/10/19 11:08:57;;;;;;;23.10;5.30;;;15.00;99.90;;;;;;5022540;28;20380;-51
2022/10/19 11:11:41;;;;;;;9.48;4.90;;;15.10;99.90;;;;;;5019762;28;20515;-57
2022/10/19 11:14:25;;;;;;;10.10;5.25;;;15.20;99.90;;;;;;5016554;28;20109;-55
2022/10/19 11:16:53;;;;;;;19.60;4.20;;;15.30;99.90;;;;;;5024112;28;20104;-55
2022/10/19 11:19:41;;;;;;;33.15;5.70;;;15.50;99.90;;;;;;5014655;28;20156;-57
2022/10/19 11:22:25;;;;;;;9.20;4.57;;;15.60;99.90;;;;;;5018066;28;20652;-59
2022/10/19 11:25:14;;;;;;;14.68;5.43;;;15.30;99.90;;;;;;5014866;28;20033;-57
2022/10/19 11:28:16;;;;;;;12.18;5.50;;;15.40;99.90;;;;;;5011974;28;20112;-56
2022/10/19 11:31:13;;;;;;;14.38;5.07;;;15.30;99.90;;;;;;5019518;28;20041;-59
2022/10/19 11:33:46;;;;;;;15.65;4.57;;;15.70;99.90;;;;;;5000361;28;20033;-55
2022/10/19 11:36:36;;;;;;;12.63;4.10;;;15.80;99.90;;;;;;5017141;28;20034;-60
2022/10/19 11:39:23;;;;;;;17.27;4.45;;;15.90;99.90;;;;;;5020973;28;20032;-56
2022/10/19 11:42:13;;;;;;;12.60;4.38;;;16.20;99.90;;;;;;5021056;28;20252;-60
2022/10/19 11:45:09;;;;;;;17.38;4.00;;;16.40;99.90;;;;;;5020958;28;20029;-58
2022/10/19 11:47:52;;;;;;;20.80;3.78;;;16.70;99.90;;;;;;5016026;28;20034;-59
2022/10/19 11:50:50;;;;;;;12.20;3.55;;;17.10;99.90;;;;;;5020480;28;20095;-59
2022/10/19 11:53:51;;;;;;;24.48;4.30;;;17.30;99.90;;;;;;5019927;28;20108;-53
2022/10/19 11:56:31;;;;;;;21.70;3.80;;;17.50;99.90;;;;;;5010850;28;20047;-57
2022/10/19 11:59:24;;;;;;;12.70;3.40;;;17.00;99.90;;;;;;5019099;28;20040;-56
2022/10/19 12:02:27;;;;;;;17.65;3.97;;;17.10;99.90;;;;;;5015333;28;20041;-55
2022/10/19 12:05:08;;;;;;;9.63;3.47;;;17.30;99.90;;;;;;5001474;28;20114;-56
2022/10/19 12:07:40;;;;;;;11.88;3.42;;;17.40;99.90;;;;;;5018550;28;20033;-56
2022/10/19 12:10:33;;;;;;;12.25;3.80;;;17.50;99.90;;;;;;5022214;28;20089;-59
2022/10/19 12:13:07;;;;;;;12.80;3.08;;;17.70;99.90;;;;;;5023609;28;20037;-57
2022/10/19 12:15:40;;;;;;;7.55;2.85;;;17.90;99.90;;;;;;5027868;28;20059;-58
2022/10/19 12:18:40;;;;;;;9.90;3.00;;;17.80;99.90;;;;;;5023172;28;20360;-57
2022/10/19 12:21:29;;;;;;;18.35;4.07;;;17.70;99.90;;;;;;5015605;28;20029;-58
2022/10/19 12:23:57;;;;;;;25.42;3.53;;;17.90;99.90;;;;;;5020469;28;20111;-57
2022/10/19 12:26:26;;;;;;;35.72;5.38;;;17.60;99.90;;;;;;5025721;28;20061;-55
2022/10/19 12:28:58;;;;;;;7.03;2.95;;;17.80;99.90;;;;;;5021775;28;20080;-56
2022/10/19 12:31:25;;;;;;;21.05;3.75;;;17.80;99.90;;;;;;5024837;28;20044;-58
2022/10/19 12:34:14;;;;;;;10.60;3.33;;;17.80;99.90;;;;;;5024784;28;20030;-60
2022/10/19 12:36:54;;;;;;;11.80;3.33;;;17.80;99.90;;;;;;5018754;28;20896;-56
2022/10/19 12:39:26;;;;;;;16.83;4.40;;;17.70;99.90;;;;;;5017112;28;20038;-57
2022/10/19 12:42:02;;;;;;;13.35;3.22;;;17.70;99.90;;;;;;5020183;28;20061;-57
2022/10/19 12:44:42;;;;;;;31.55;6.97;;;17.50;99.90;;;;;;5027586;28;20029;-57
2022/10/19 12:47:15;;;;;;;7.93;2.33;;;17.70;99.90;;;;;;5025642;28;20033;-57
2022/10/19 12:49:49;;;;;;;15.38;3.95;;;17.80;99.90;;;;;;5022749;28;20034;-60
2022/10/19 12:52:44;;;;;;;27.58;3.78;;;17.90;99.90;;;;;;5027733;28;20052;-59
2022/10/19 12:55:33;;;;;;;21.70;3.20;;;18.00;99.90;;;;;;5026060;28;20472;-54
2022/10/19 12:58:03;;;;;;;14.48;3.05;;;18.10;99.90;;;;;;5021034;28;20076;-59
2022/10/19 13:00:31;;;;;;;22.48;3.47;;;18.30;99.90;;;;;;5026671;28;20083;-57
2022/10/19 13:03:12;;;;;;;14.73;3.13;;;18.30;99.90;;;;;;5032420;28;20061;-56